Time;durP1;ratioP1;P1;durP2;ratioP2;P2;SDS_P1;SDS_P2;PMS_P1;PMS_P2;Temp;Humidity;BMP_temperature;BMP_pressure;BME280_temperature;BME280_humidity;BME280_pressure;Samples;Min_cycle;Max_cycle;Signal;HPM_P1;HPM_P2
2022/12/18 00:01:48;;;;;;;407.90;177.53;;;;;;;-5.45;80.82;102841.06;4169343;28;20745;-58
2022/12/18 00:03:51;;;;;;;408.90;180.23;;;;;;;-5.48;80.82;102846.34;4171719;28;20713;-59
2022/12/18 00:05:55;;;;;;;406.23;168.57;;;;;;;-5.49;80.71;102844.59;4172867;28;20740;-58
2022/12/18 00:07:58;;;;;;;408.40;182.23;;;;;;;-5.47;80.95;102843.72;4163615;28;21302;-57
2022/12/18 00:10:00;;;;;;;407.90;172.80;;;;;;;-5.47;80.71;102848.09;4162354;28;20673;-57
2022/12/18 00:12:02;;;;;;;411.43;195.90;;;;;;;-5.48;80.69;102841.09;4170192;28;20705;-60
2022/12/18 00:14:05;;;;;;;411.67;191.37;;;;;;;-5.46;80.84;102849.84;4157532;28;20690;-60
2022/12/18 00:16:11;;;;;;;416.37;200.93;;;;;;;-5.52;80.71;102842.88;4169044;28;21084;-54
2022/12/18 00:18:13;;;;;;;413.07;196.67;;;;;;;-5.46;80.76;102853.31;4170416;28;20733;-54
2022/12/18 00:20:15;;;;;;;416.00;202.13;;;;;;;-5.52;80.47;102852.56;4172715;28;21286;-58
2022/12/18 00:22:19;;;;;;;420.67;222.30;;;;;;;-5.60;80.29;102850.03;4174084;28;20712;-58
2022/12/18 00:24:21;;;;;;;416.80;204.73;;;;;;;-5.66;80.11;102858.00;4170756;28;20717;-58
2022/12/18 00:26:25;;;;;;;414.47;195.20;;;;;;;-5.66;80.39;102858.00;4158191;28;20758;-59
2022/12/18 00:28:31;;;;;;;416.97;206.70;;;;;;;-5.68;80.50;102850.13;4167337;28;21246;-59
2022/12/18 00:30:34;;;;;;;411.63;186.70;;;;;;;-5.69;80.23;102839.63;4167337;28;21485;-59
2022/12/18 00:32:36;;;;;;;419.07;220.47;;;;;;;-5.72;80.12;102842.28;4169010;28;20705;-60
2022/12/18 00:34:39;;;;;;;412.80;184.73;;;;;;;-5.76;80.41;102846.72;4170705;28;20717;-59
2022/12/18 00:36:42;;;;;;;416.17;202.93;;;;;;;-5.79;80.12;102842.38;4170683;28;20753;-59
2022/12/18 00:38:46;;;;;;;419.83;214.43;;;;;;;-5.81;80.19;102845.94;4168791;28;20728;-59
2022/12/18 00:40:48;;;;;;;414.40;202.77;;;;;;;-5.82;80.27;102847.66;4161621;28;20729;-57
2022/12/18 00:42:55;;;;;;;415.13;200.53;;;;;;;-5.83;80.26;102840.69;4174752;28;20709;-59
2022/12/18 00:44:57;;;;;;;416.83;198.83;;;;;;;-5.83;80.41;102843.31;4165357;28;20676;-59
2022/12/18 00:47:00;;;;;;;413.53;190.33;;;;;;;-5.78;80.42;102848.53;4173140;28;21109;-59
2022/12/18 00:49:02;;;;;;;415.27;197.27;;;;;;;-5.81;80.43;102844.16;4163524;28;20717;-60
2022/12/18 00:51:04;;;;;;;411.53;184.27;;;;;;;-5.80;80.42;102837.13;4164221;28;20638;-59
2022/12/18 00:53:09;;;;;;;409.63;174.83;;;;;;;-5.81;80.26;102843.28;4173447;28;20705;-59
2022/12/18 00:55:13;;;;;;;412.17;178.37;;;;;;;-5.83;80.21;102837.16;4148075;28;20742;-58
2022/12/18 00:57:15;;;;;;;409.20;173.53;;;;;;;-5.77;80.36;102830.94;4163148;28;20705;-60
2022/12/18 00:59:19;;;;;;;412.47;185.63;;;;;;;-5.75;80.29;102829.16;4161591;28;20713;-58
2022/12/18 01:01:21;;;;;;;414.97;190.30;;;;;;;-5.81;80.10;102835.41;4161272;28;20722;-60
2022/12/18 01:03:23;;;;;;;410.23;180.40;;;;;;;-5.83;80.05;102826.63;4162150;28;20721;-61
2022/12/18 01:05:26;;;;;;;412.10;192.03;;;;;;;-5.87;80.20;102828.44;4162374;28;20737;-58
2022/12/18 01:07:29;;;;;;;415.03;200.00;;;;;;;-5.92;80.14;102834.66;4163153;28;20705;-60
2022/12/18 01:09:31;;;;;;;417.00;209.03;;;;;;;-5.88;80.48;102836.34;4163179;28;20754;-61
2022/12/18 01:11:35;;;;;;;412.03;189.97;;;;;;;-5.86;80.52;102842.47;4161209;28;20646;-59
2022/12/18 01:13:37;;;;;;;411.07;184.13;;;;;;;-5.85;80.66;102842.44;4161542;28;20721;-60
2022/12/18 01:15:39;;;;;;;417.10;211.10;;;;;;;-5.82;80.69;102836.28;4160805;28;20737;-57
2022/12/18 01:17:42;;;;;;;410.57;177.53;;;;;;;-5.84;80.69;102835.44;4161719;28;20718;-60
2022/12/18 01:19:44;;;;;;;418.67;208.20;;;;;;;-5.77;80.62;102842.34;4162206;28;21358;-58
2022/12/18 01:21:47;;;;;;;413.37;187.67;;;;;;;-5.75;80.72;102839.69;4162487;28;21108;-58
2022/12/18 01:23:53;;;;;;;416.07;198.07;;;;;;;-5.76;80.61;102849.34;4162838;28;20701;-57
2022/12/18 01:25:55;;;;;;;413.03;190.40;;;;;;;-5.75;80.64;102856.38;4152633;28;20744;-58
2022/12/18 01:27:59;;;;;;;410.00;179.03;;;;;;;-5.74;80.54;102865.13;4162849;28;20701;-58
2022/12/18 01:30:01;;;;;;;410.43;182.03;;;;;;;-5.76;80.20;102859.03;4162547;28;20749;-58
2022/12/18 01:32:03;;;;;;;410.80;181.90;;;;;;;-5.78;80.31;102859.03;4161908;28;20627;-55
2022/12/18 01:34:06;;;;;;;412.83;193.67;;;;;;;-5.76;80.39;102865.16;4162872;28;20705;-57
2022/12/18 01:36:16;;;;;;;409.70;176.63;;;;;;;-5.80;80.38;102856.44;4161958;28;21315;-60
2022/12/18 01:38:18;;;;;;;408.00;168.97;;;;;;;-5.76;80.31;102859.88;4151277;28;20694;-60
2022/12/18 01:40:21;;;;;;;404.63;163.17;;;;;;;-5.72;80.43;102863.34;4160051;28;20721;-59
2022/12/18 01:42:27;;;;;;;411.37;186.97;;;;;;;-5.69;80.24;102863.31;4162010;28;20718;-58
2022/12/18 01:45:00;;;;;;;406.27;169.23;;;;;;;-5.63;80.23;102874.66;4161699;28;21108;-58
2022/12/18 01:47:02;;;;;;;409.37;184.10;;;;;;;-5.66;79.98;102858.00;4150824;28;21573;-56
2022/12/18 01:49:04;;;;;;;411.37;186.30;;;;;;;-5.71;79.68;102862.47;4169677;28;20680;-60
2022/12/18 01:51:09;;;;;;;414.63;201.27;;;;;;;-5.73;79.96;102866.88;4161565;28;20749;-60
2022/12/18 01:53:14;;;;;;;411.43;186.83;;;;;;;-5.76;79.75;102865.16;4174559;28;20601;-58
2022/12/18 01:55:21;;;;;;;413.67;201.50;;;;;;;-5.77;79.92;102859.91;4158560;28;20721;-60
2022/12/18 01:57:24;;;;;;;408.30;177.93;;;;;;;-5.79;79.79;102867.81;4155160;28;20706;-60
2022/12/18 01:59:26;;;;;;;408.60;179.03;;;;;;;-5.78;79.87;102864.31;4162520;28;20737;-57
2022/12/18 02:01:31;;;;;;;409.27;178.77;;;;;;;-5.73;80.17;102865.13;4175922;28;21321;-61
2022/12/18 02:03:37;;;;;;;405.03;172.13;;;;;;;-5.70;80.20;102874.75;4173410;28;21152;-59
2022/12/18 02:05:45;;;;;;;408.63;178.53;;;;;;;-5.71;79.70;102871.22;4174900;28;20735;-59
2022/12/18 02:07:59;;;;;;;406.30;179.50;;;;;;;-5.73;79.57;102882.69;4180442;28;21245;-59
2022/12/18 02:10:07;;;;;;;409.80;191.17;;;;;;;-5.79;79.51;102878.34;4179638;28;20740;-59
2022/12/18 02:12:16;;;;;;;406.23;180.33;;;;;;;-5.83;79.58;102879.25;4179847;28;20726;-59
2022/12/18 02:14:24;;;;;;;398.50;162.43;;;;;;;-5.86;79.50;102876.66;4181822;28;20628;-59
2022/12/18 02:16:33;;;;;;;397.67;160.53;;;;;;;-5.92;79.18;102876.78;4175160;28;20728;-57
2022/12/18 02:18:38;;;;;;;397.60;161.83;;;;;;;-5.96;79.51;102875.91;4172211;28;20708;-61
2022/12/18 02:20:45;;;;;;;395.77;160.33;;;;;;;-5.99;79.53;102875.97;4178763;28;20732;-60
2022/12/18 02:22:59;;;;;;;384.70;142.33;;;;;;;-6.03;79.61;102882.19;4181966;28;21352;-59
2022/12/18 02:25:13;;;;;;;386.57;145.13;;;;;;;-6.04;79.89;102886.56;4177121;28;20724;-60
2022/12/18 02:27:18;;;;;;;373.85;123.88;;;;;;;-6.05;79.86;102886.56;4164773;28;20732;-59
2022/12/18 02:29:27;;;;;;;252.83;178.33;;;;;;;-6.07;79.92;102880.47;4164082;28;20302;-59
2022/12/18 02:31:32;;;;;;;112.63;104.37;;;;;;;-6.08;79.80;102878.72;4167663;28;20322;-59
2022/12/18 02:33:35;;;;;;;636.67;579.80;;;;;;;-6.07;79.98;102875.22;4173465;28;20302;-57
2022/12/18 02:35:39;;;;;;;581.27;527.90;;;;;;;-6.03;79.84;102887.44;4175491;28;20246;-60
2022/12/18 02:37:43;;;;;;;480.20;368.97;;;;;;;-5.98;80.03;102888.25;4165715;28;20717;-59
2022/12/18 02:39:47;;;;;;;476.97;357.93;;;;;;;-5.95;79.92;102890.81;4177240;28;20301;-59
2022/12/18 02:41:51;;;;;;;503.13;444.43;;;;;;;-5.92;79.73;102893.44;4178862;28;20318;-58
2022/12/18 02:43:57;;;;;;;449.63;282.27;;;;;;;-5.88;79.61;102889.84;4177393;28;20294;-59
2022/12/18 02:46:01;;;;;;;424.33;220.50;;;;;;;-5.92;79.39;102903.94;4169447;28;20310;-59
2022/12/18 02:48:06;;;;;;;491.27;414.20;;;;;;;-5.99;79.20;102910.19;4170542;28;21085;-57
2022/12/18 02:50:14;;;;;;;462.20;308.83;;;;;;;-6.05;79.02;102918.16;4163104;28;20311;-61
2022/12/18 02:52:26;;;;;;;452.60;297.17;;;;;;;-6.09;79.22;102908.56;4164424;28;20290;-58
2022/12/18 02:54:37;;;;;;;440.13;272.17;;;;;;;-6.17;79.23;102906.88;4164216;28;20785;-61
2022/12/18 02:56:44;;;;;;;434.07;269.53;;;;;;;-6.20;79.44;102901.66;4163324;28;20745;-57
2022/12/18 02:58:50;;;;;;;424.20;236.77;;;;;;;-6.22;79.48;102906.06;4168491;28;20719;-53
2022/12/18 03:01:11;;;;;;;440.33;246.40;;;;;;;-6.26;79.72;102896.44;4166698;28;20732;-55
2022/12/18 03:03:17;;;;;;;419.20;231.20;;;;;;;-6.27;79.69;102901.72;4164660;28;20407;-55
2022/12/18 03:05:23;;;;;;;423.23;227.97;;;;;;;-6.31;79.73;102895.63;4162534;28;21271;-58
2022/12/18 03:07:33;;;;;;;381.50;140.33;;;;;;;-6.33;79.98;102897.41;4163468;28;20725;-55
2022/12/18 03:09:39;;;;;;;354.60;110.38;;;;;;;-6.28;80.19;102902.63;4163950;28;21556;-55
2022/12/18 03:14:04;;;;;;;347.73;104.18;;;;;;;-6.25;80.44;102903.47;4176717;28;20302;-54
2022/12/18 03:16:11;;;;;;;347.33;108.53;;;;;;;-6.25;80.42;102905.22;4161885;28;20382;-58
2022/12/18 03:18:17;;;;;;;344.17;102.35;;;;;;;-6.26;80.42;102906.09;4169189;28;20217;-58
2022/12/18 03:20:22;;;;;;;345.25;105.65;;;;;;;-6.25;80.42;102906.09;4164143;28;20957;-58
2022/12/18 03:22:25;;;;;;;335.83;103.97;;;;;;;-6.23;80.41;102906.94;4170363;28;20945;-55
2022/12/18 03:24:31;;;;;;;337.15;102.68;;;;;;;-6.25;80.41;102897.34;4171364;28;20718;-57
2022/12/18 03:26:34;;;;;;;238.13;64.78;;;;;;;-6.22;80.57;102897.28;4161623;28;20326;-56
2022/12/18 03:28:43;;;;;;;337.67;97.85;;;;;;;-6.19;80.32;102900.78;4162123;28;20299;-61
2022/12/18 03:30:47;;;;;;;328.77;92.10;;;;;;;-6.22;80.23;102916.59;4162750;28;20326;-56
2022/12/18 03:32:54;;;;;;;327.05;93.68;;;;;;;-6.24;80.33;102913.06;4162769;28;20648;-59
2022/12/18 03:35:00;;;;;;;338.58;101.15;;;;;;;-6.26;80.42;102917.47;4162202;28;20378;-60
2022/12/18 03:37:07;;;;;;;329.27;94.60;;;;;;;-6.29;80.27;102909.63;4166384;28;21419;-58
2022/12/18 03:39:10;;;;;;;326.70;95.03;;;;;;;-6.27;80.20;102917.50;4169921;28;20742;-57
2022/12/18 03:41:19;;;;;;;322.80;87.68;;;;;;;-6.29;80.16;102920.16;4162278;28;20322;-59
2022/12/18 03:43:45;;;;;;;324.85;90.70;;;;;;;-6.35;80.13;102912.31;4154488;28;20291;-59
2022/12/18 03:45:53;;;;;;;327.02;93.18;;;;;;;-6.37;80.04;102908.84;4162266;28;20311;-58
2022/12/18 03:48:02;;;;;;;325.98;90.82;;;;;;;-6.32;80.11;102908.78;4162962;28;20804;-57
2022/12/18 03:50:13;;;;;;;330.27;98.75;;;;;;;-6.35;80.00;102905.31;4161945;28;20326;-57
2022/12/18 03:52:22;;;;;;;323.77;93.78;;;;;;;-6.34;80.10;102898.28;4163194;28;20777;-57
2022/12/18 03:54:26;;;;;;;333.40;99.95;;;;;;;-6.36;80.10;102900.06;4162630;28;20821;-57
2022/12/18 03:56:39;;;;;;;317.55;83.97;;;;;;;-6.37;79.91;102911.47;4154445;28;20326;-58
2022/12/18 03:58:43;;;;;;;323.83;89.90;;;;;;;-6.35;79.98;102914.94;4163236;28;20778;-57
2022/12/18 04:00:57;;;;;;;326.80;91.05;;;;;;;-6.33;80.29;102926.34;4163069;28;20747;-57
2022/12/18 04:03:01;;;;;;;334.75;100.25;;;;;;;-6.32;80.08;102912.28;4163483;28;20306;-56
2022/12/18 04:05:14;;;;;;;331.48;96.03;;;;;;;-6.26;80.02;102904.34;4162975;28;20315;-56
2022/12/18 04:07:18;;;;;;;326.38;92.40;;;;;;;-6.26;79.79;102909.59;4165090;28;20290;-60
2022/12/18 04:09:21;;;;;;;325.08;88.90;;;;;;;-6.32;79.50;102911.41;4163991;28;20761;-57
2022/12/18 04:11:24;;;;;;;327.00;91.70;;;;;;;-6.39;79.66;102916.75;4162294;28;20311;-57
2022/12/18 04:13:29;;;;;;;325.70;91.28;;;;;;;-6.37;79.80;102906.19;4163178;28;20291;-56
2022/12/18 04:15:35;;;;;;;333.38;94.15;;;;;;;-6.34;79.79;102901.78;4163271;28;20816;-60
2022/12/18 04:17:39;;;;;;;337.13;98.47;;;;;;;-6.37;79.83;102904.44;4178791;28;20756;-57
2022/12/18 04:19:43;;;;;;;332.13;98.22;;;;;;;-6.40;79.82;102920.25;4178740;28;20365;-57
2022/12/18 04:21:46;;;;;;;325.80;94.05;;;;;;;-6.43;79.95;102920.28;4178874;28;20233;-58
2022/12/18 04:23:50;;;;;;;332.13;96.47;;;;;;;-6.40;80.09;102916.75;4178708;28;20800;-58
2022/12/18 04:25:55;;;;;;;333.35;96.28;;;;;;;-6.38;80.03;102929.00;4174540;28;20302;-59
2022/12/18 04:28:11;;;;;;;323.85;91.80;;;;;;;-6.37;80.02;102929.88;4177737;28;20369;-58
2022/12/18 04:30:15;;;;;;;330.35;98.18;;;;;;;-6.36;79.99;102924.59;4152942;28;20330;-57
2022/12/18 04:32:17;;;;;;;331.58;99.28;;;;;;;-6.34;80.07;102930.72;4173052;28;20290;-59
2022/12/18 04:34:21;;;;;;;330.88;101.00;;;;;;;-6.35;79.72;102930.72;4172039;28;20661;-61
2022/12/18 04:36:31;;;;;;;323.73;92.38;;;;;;;-6.41;79.72;102936.03;4172659;28;20358;-60
2022/12/18 04:38:33;;;;;;;328.27;96.78;;;;;;;-6.45;79.96;102935.19;4169187;28;20299;-59
2022/12/18 04:40:42;;;;;;;324.30;93.50;;;;;;;-6.49;80.10;102936.09;4166848;28;20314;-59
2022/12/18 04:42:52;;;;;;;328.85;97.13;;;;;;;-6.50;80.18;102933.47;4169816;28;20249;-58
2022/12/18 04:44:55;;;;;;;333.58;100.10;;;;;;;-6.54;80.28;102943.16;4163468;28;20307;-57
2022/12/18 04:46:57;;;;;;;332.02;98.18;;;;;;;-6.58;80.44;102939.69;4167345;28;20306;-59
2022/12/18 04:48:59;;;;;;;336.45;100.00;;;;;;;-6.64;80.60;102938.88;4168973;28;20322;-59
2022/12/18 04:51:01;;;;;;;340.85;107.63;;;;;;;-6.65;80.94;102932.72;4159252;28;20298;-58
2022/12/18 04:53:05;;;;;;;335.00;103.95;;;;;;;-6.61;81.29;102937.09;4167631;28;20624;-56
2022/12/18 04:55:08;;;;;;;337.45;106.50;;;;;;;-6.59;81.40;102943.19;4160934;28;20725;-58
2022/12/18 04:57:10;;;;;;;329.55;97.78;;;;;;;-6.55;81.64;102941.41;4168228;28;20278;-57
2022/12/18 04:59:12;;;;;;;335.60;103.40;;;;;;;-6.51;81.76;102935.25;4169840;28;20752;-59
2022/12/18 05:01:16;;;;;;;330.02;99.28;;;;;;;-6.47;81.83;102950.13;4167019;28;20319;-58
2022/12/18 05:03:19;;;;;;;327.23;97.75;;;;;;;-6.45;81.88;102952.75;4167633;28;20226;-60
2022/12/18 05:05:21;;;;;;;336.38;104.95;;;;;;;-6.43;81.81;102950.97;4169499;28;20314;-60
2022/12/18 05:07:23;;;;;;;333.15;99.75;;;;;;;-6.45;81.61;102958.84;4168404;28;20281;-58
2022/12/18 05:09:27;;;;;;;335.70;101.90;;;;;;;-6.50;81.67;102949.25;4167632;28;20283;-61
2022/12/18 05:11:29;;;;;;;331.83;101.05;;;;;;;-6.50;81.62;102947.53;4166807;28;20330;-60
2022/12/18 05:13:31;;;;;;;331.65;103.78;;;;;;;-6.52;81.83;102939.66;4170069;28;20283;-59
2022/12/18 05:15:34;;;;;;;327.73;96.88;;;;;;;-6.46;82.05;102940.47;4166672;28;20318;-58
2022/12/18 05:17:36;;;;;;;331.60;102.35;;;;;;;-6.43;82.01;102933.41;4167730;28;20282;-58
2022/12/18 05:19:39;;;;;;;329.25;98.63;;;;;;;-6.38;82.27;102941.25;4167609;28;20310;-58
2022/12/18 05:21:41;;;;;;;330.30;99.15;;;;;;;-6.36;82.04;102952.66;4170035;28;20321;-58
2022/12/18 05:23:43;;;;;;;328.45;100.35;;;;;;;-6.34;81.97;102958.78;4167567;28;21012;-57
2022/12/18 05:25:52;;;;;;;325.63;97.25;;;;;;;-6.35;81.68;102949.13;4164728;28;20741;-59
2022/12/18 05:27:54;;;;;;;325.15;92.70;;;;;;;-6.33;81.77;102963.16;4168754;28;20274;-59
2022/12/18 05:29:56;;;;;;;694.65;632.75;;;;;;;-6.28;81.69;102949.97;4164319;28;20851;-58
2022/12/18 05:31:58;;;;;;;513.10;456.97;;;;;;;-6.10;81.32;102955.03;4164313;28;20681;-58
2022/12/18 05:34:01;;;;;;;472.07;357.50;;;;;;;-6.04;80.83;102962.88;4162131;28;20283;-55
2022/12/18 05:36:05;;;;;;;469.67;352.23;;;;;;;-6.00;80.53;102969.84;4161486;28;20662;-58
2022/12/18 05:38:07;;;;;;;465.83;339.77;;;;;;;-5.99;80.38;102968.06;4161505;28;20267;-58
2022/12/18 05:40:11;;;;;;;445.17;309.60;;;;;;;-6.00;80.38;102967.22;4160582;28;20379;-58
2022/12/18 05:42:14;;;;;;;1.00;1.00;;;;;;;-6.01;80.24;102975.13;4161224;28;20741;-53
2022/12/18 05:44:17;;;;;;;17.57;16.30;;;;;;;-5.95;80.19;102979.44;4162156;28;20203;-55
2022/12/18 05:46:19;;;;;;;302.90;126.97;;;;;;;-5.94;79.90;102976.78;4160639;28;20306;-56
2022/12/18 05:48:22;;;;;;;327.77;95.40;;;;;;;-5.99;79.48;102986.50;4163145;28;20736;-56
2022/12/18 05:50:24;;;;;;;321.33;89.00;;;;;;;-6.11;79.65;102987.50;4166451;28;20298;-59
2022/12/18 05:52:27;;;;;;;318.15;88.13;;;;;;;-6.19;80.10;102992.84;4172697;28;20282;-58
2022/12/18 05:54:29;;;;;;;318.58;84.68;;;;;;;-6.26;80.29;102993.75;4165239;28;20290;-56
2022/12/18 05:56:31;;;;;;;321.55;88.47;;;;;;;-6.28;80.38;102995.53;4160628;28;20367;-60
2022/12/18 05:58:35;;;;;;;318.25;84.18;;;;;;;-6.35;80.59;102984.22;4175619;28;20701;-55
2022/12/18 06:00:40;;;;;;;320.95;87.25;;;;;;;-6.34;80.96;102983.31;4168796;28;20800;-57
2022/12/18 06:02:42;;;;;;;329.77;92.80;;;;;;;-6.30;81.25;102989.44;4174306;28;20275;-56
2022/12/18 06:04:45;;;;;;;323.02;87.50;;;;;;;-6.28;81.27;102992.91;4161766;28;20215;-62
2022/12/18 06:06:47;;;;;;;321.50;86.60;;;;;;;-6.28;81.15;102992.06;4171892;28;20310;-59
2022/12/18 06:08:50;;;;;;;328.73;91.78;;;;;;;-6.28;80.92;102992.06;4172705;28;20289;-59
2022/12/18 06:10:53;;;;;;;329.63;91.53;;;;;;;-6.28;81.02;102997.31;4168452;28;20310;-56
2022/12/18 06:12:55;;;;;;;330.23;91.03;;;;;;;-6.29;81.15;103006.94;4169834;28;20276;-58
2022/12/18 06:14:59;;;;;;;335.70;96.00;;;;;;;-6.32;81.13;103001.69;4172272;28;20270;-59
2022/12/18 06:17:02;;;;;;;330.77;93.15;;;;;;;-6.29;81.26;103006.06;4170044;28;20302;-60
2022/12/18 06:19:05;;;;;;;330.40;94.68;;;;;;;-6.28;81.21;103010.47;4165400;28;20325;-59
2022/12/18 06:21:08;;;;;;;333.15;94.72;;;;;;;-6.31;81.32;103013.13;4168975;28;20306;-61
2022/12/18 06:23:10;;;;;;;327.15;90.35;;;;;;;-6.34;81.41;103012.22;4161995;28;20612;-58
2022/12/18 06:25:12;;;;;;;334.70;99.03;;;;;;;-6.31;81.48;103005.22;4171087;28;20203;-60
2022/12/18 06:27:15;;;;;;;330.15;94.25;;;;;;;-6.29;81.33;103016.59;4162764;28;20286;-60
2022/12/18 06:29:18;;;;;;;330.00;96.03;;;;;;;-6.32;81.23;103025.38;4166285;28;20280;-60
2022/12/18 06:31:21;;;;;;;325.33;90.93;;;;;;;-6.34;81.24;103022.75;4161044;28;20302;-58
2022/12/18 06:33:27;;;;;;;327.30;97.35;;;;;;;-6.32;81.37;103019.25;4161355;28;20291;-60
2022/12/18 06:35:29;;;;;;;324.05;92.45;;;;;;;-6.31;81.15;103021.00;4159879;28;20314;-61
2022/12/18 06:37:32;;;;;;;325.35;92.22;;;;;;;-6.34;81.39;103024.53;4164253;28;20279;-59
2022/12/18 06:39:34;;;;;;;324.90;92.22;;;;;;;-6.37;81.35;103021.91;4163681;28;20311;-60
2022/12/18 06:41:36;;;;;;;328.55;91.75;;;;;;;-6.43;81.14;103022.81;4160961;28;20331;-56
2022/12/18 06:43:38;;;;;;;329.33;94.88;;;;;;;-6.41;81.43;103034.22;4166496;28;20301;-60
2022/12/18 06:45:42;;;;;;;326.05;92.13;;;;;;;-6.44;81.42;103034.25;4175875;28;20242;-58
2022/12/18 06:47:45;;;;;;;329.17;94.80;;;;;;;-6.44;81.52;103038.59;4157216;28;20295;-59
2022/12/18 06:49:47;;;;;;;335.20;98.25;;;;;;;-6.44;81.58;103046.50;4170829;28;20640;-58
2022/12/18 06:51:50;;;;;;;334.35;102.35;;;;;;;-6.42;81.90;103042.97;4164246;28;20301;-61
2022/12/18 06:53:52;;;;;;;324.27;92.32;;;;;;;-6.42;82.02;103040.34;4170648;28;20313;-58
2022/12/18 06:56:01;;;;;;;324.88;92.45;;;;;;;-6.41;82.20;103049.09;4164548;28;20307;-60
2022/12/18 06:58:03;;;;;;;326.48;93.07;;;;;;;-6.36;82.27;103056.09;4166586;28;20278;-59
2022/12/18 07:00:08;;;;;;;326.00;92.90;;;;;;;-6.36;82.07;103057.84;4165454;28;20315;-59
2022/12/18 07:02:12;;;;;;;328.13;93.22;;;;;;;-6.32;81.98;103066.59;4167014;28;20627;-59
2022/12/18 07:04:16;;;;;;;323.50;95.22;;;;;;;-6.32;81.90;103061.31;4164437;28;20341;-58
2022/12/18 07:06:20;;;;;;;327.52;94.47;;;;;;;-6.37;81.76;103064.84;4166956;28;20258;-57
2022/12/18 07:08:23;;;;;;;321.80;92.55;;;;;;;-6.39;81.83;103069.25;4177811;28;20274;-57
2022/12/18 07:10:25;;;;;;;321.05;89.20;;;;;;;-6.38;82.00;103064.84;4175475;28;20314;-61
2022/12/18 07:12:27;;;;;;;322.80;91.65;;;;;;;-6.37;82.04;103056.09;4175155;28;20290;-57
2022/12/18 07:14:30;;;;;;;324.85;91.80;;;;;;;-6.39;81.97;103053.47;4177198;28;20623;-60
2022/12/18 07:16:32;;;;;;;322.40;93.18;;;;;;;-6.38;81.97;103049.97;4176189;28;20321;-55
2022/12/18 07:18:34;;;;;;;322.73;90.65;;;;;;;-6.37;81.92;103049.06;4175534;28;20278;-56
2022/12/18 07:20:38;;;;;;;326.98;99.10;;;;;;;-6.32;82.08;103048.19;4164131;28;20330;-59
2022/12/18 07:22:40;;;;;;;331.25;102.35;;;;;;;-6.27;81.94;103059.53;4176655;28;20286;-59
2022/12/18 07:24:42;;;;;;;323.10;95.25;;;;;;;-6.23;81.93;103058.63;4176410;28;20662;-56
2022/12/18 07:26:46;;;;;;;330.25;98.18;;;;;;;-6.22;81.84;103062.97;4169258;28;20241;-59
2022/12/18 07:28:49;;;;;;;322.45;91.03;;;;;;;-6.27;81.78;103049.91;4173428;28;20299;-56
2022/12/18 07:30:51;;;;;;;379.60;157.00;;;;;;;-6.21;81.81;103070.00;4170610;28;20314;-59
2022/12/18 07:32:53;;;;;;;363.75;140.32;;;;;;;-6.22;81.66;103062.97;4172136;28;20273;-59
2022/12/18 07:34:56;;;;;;;482.23;388.40;;;;;;;-6.24;81.64;103055.09;4167191;28;20314;-60
2022/12/18 07:36:59;;;;;;;458.90;344.13;;;;;;;-6.23;81.42;103062.13;4164931;28;21084;-60
2022/12/18 07:39:02;;;;;;;463.33;358.53;;;;;;;-6.18;81.58;103062.94;4179683;28;20701;-60
2022/12/18 07:41:06;;;;;;;463.13;358.30;;;;;;;-6.16;81.35;103069.09;4168921;28;20656;-58
2022/12/18 07:43:08;;;;;;;457.63;339.17;;;;;;;-6.21;81.14;103043.69;4169263;28;20277;-59
2022/12/18 07:45:10;;;;;;;464.80;347.53;;;;;;;-6.16;81.14;103058.56;4168313;28;20311;-60
2022/12/18 07:47:13;;;;;;;451.57;314.20;;;;;;;-6.14;81.19;103058.56;4169586;28;20199;-57
2022/12/18 07:49:15;;;;;;;450.13;308.70;;;;;;;-6.13;81.30;103059.41;4165263;28;20267;-57
2022/12/18 07:51:18;;;;;;;437.90;291.63;;;;;;;-6.10;81.53;103064.66;4163546;28;20311;-57
2022/12/18 07:53:22;;;;;;;435.67;281.67;;;;;;;-6.05;81.18;103070.75;4175284;28;20701;-59
2022/12/18 07:55:24;;;;;;;429.47;270.67;;;;;;;-6.05;81.04;103061.13;4163445;28;20746;-57
2022/12/18 07:57:26;;;;;;;426.93;252.27;;;;;;;-6.05;81.06;103061.13;4163681;28;21263;-58
2022/12/18 07:59:28;;;;;;;437.13;289.63;;;;;;;-6.01;81.12;103061.97;4168574;28;20783;-61
2022/12/18 08:01:31;;;;;;;443.07;304.60;;;;;;;-5.99;80.92;103057.53;4176083;28;20661;-60
2022/12/18 08:03:33;;;;;;;440.50;293.10;;;;;;;-5.99;80.83;103057.53;4170678;28;20729;-60
2022/12/18 08:05:36;;;;;;;433.07;278.00;;;;;;;-5.98;80.66;103054.91;4175952;28;20744;-59
2022/12/18 08:07:38;;;;;;;430.43;268.13;;;;;;;-5.96;80.80;103059.28;4170466;28;21238;-59
2022/12/18 08:09:42;;;;;;;428.23;260.10;;;;;;;-5.96;80.58;103054.03;4161076;28;20758;-59
2022/12/18 08:11:44;;;;;;;432.10;271.73;;;;;;;-5.95;80.57;103068.91;4169258;28;20736;-61
2022/12/18 08:13:46;;;;;;;432.77;274.40;;;;;;;-5.94;80.48;103063.63;4159194;28;21243;-59
2022/12/18 08:15:56;;;;;;;429.70;259.97;;;;;;;-5.94;80.28;103066.25;4162125;28;20749;-59
2022/12/18 08:17:59;;;;;;;433.27;267.20;;;;;;;-5.95;80.30;103075.03;4165198;28;20709;-58
2022/12/18 08:20:01;;;;;;;432.57;270.27;;;;;;;-5.97;80.34;103061.06;4164095;28;20733;-56
2022/12/18 08:22:03;;;;;;;433.87;276.30;;;;;;;-6.00;80.33;103061.09;4169020;28;20716;-61
2022/12/18 08:24:06;;;;;;;430.70;264.77;;;;;;;-5.98;80.89;103064.56;4169046;28;21263;-57
2022/12/18 08:26:10;;;;;;;433.73;272.17;;;;;;;-5.95;80.59;103063.66;4166415;28;20738;-54
2022/12/18 08:28:16;;;;;;;431.33;261.47;;;;;;;-5.92;80.90;103071.50;4164784;28;20646;-55
2022/12/18 08:30:18;;;;;;;431.33;265.83;;;;;;;-5.88;81.06;103073.22;4163108;28;20725;-58
2022/12/18 08:32:21;;;;;;;432.60;273.43;;;;;;;-5.85;81.06;103071.41;4165166;28;20757;-59
2022/12/18 08:34:24;;;;;;;430.90;272.53;;;;;;;-5.83;81.10;103069.66;4172305;28;20708;-57
2022/12/18 08:36:26;;;;;;;435.90;291.63;;;;;;;-5.81;80.92;103081.03;4164475;28;20686;-60
2022/12/18 08:38:29;;;;;;;431.23;276.50;;;;;;;-5.79;80.77;103067.88;4178876;28;20716;-58
2022/12/18 08:40:31;;;;;;;595.75;537.85;;;;;;;-5.66;80.59;103079.16;4174304;28;24510;-57
2022/12/18 08:44:57;;;;;;;614.40;557.28;;;;;;;-5.21;78.77;103069.00;4157926;28;20896;-60
2022/12/18 08:46:59;;;;;;;470.47;388.63;;;;;;;-5.19;78.15;103085.66;4160719;28;20491;-57
2022/12/18 08:49:02;;;;;;;460.53;363.47;;;;;;;-5.30;78.25;103077.03;4164839;28;20200;-58
2022/12/18 08:51:04;;;;;;;435.23;282.70;;;;;;;-5.40;78.84;103086.78;4162718;28;20322;-62
2022/12/18 08:53:07;;;;;;;426.23;258.80;;;;;;;-5.51;79.19;103073.72;4163616;28;20717;-59
2022/12/18 08:55:10;;;;;;;427.60;265.03;;;;;;;-5.48;79.74;103083.38;4159804;28;20705;-59
2022/12/18 08:57:12;;;;;;;423.70;261.77;;;;;;;-5.53;80.05;103083.41;4159273;28;20742;-58
2022/12/18 08:59:16;;;;;;;436.77;280.03;;;;;;;-5.59;80.43;103093.16;4164485;28;20721;-60
2022/12/18 09:01:18;;;;;;;414.73;220.33;;;;;;;-5.63;80.96;103100.19;4163595;28;20741;-60
2022/12/18 09:03:22;;;;;;;412.17;204.73;;;;;;;-5.66;81.11;103093.22;4163861;28;20710;-59
2022/12/18 09:05:24;;;;;;;428.83;244.17;;;;;;;-5.67;81.48;103101.13;4161593;28;20741;-59
2022/12/18 09:07:26;;;;;;;440.20;264.37;;;;;;;-5.64;81.87;103109.84;4177329;28;20720;-57
2022/12/18 09:09:29;;;;;;;449.90;287.30;;;;;;;-5.63;81.93;103110.72;4166786;28;20246;-57
2022/12/18 09:11:32;;;;;;;428.37;231.13;;;;;;;-5.63;82.22;103121.25;4159952;28;20314;-57
2022/12/18 09:13:34;;;;;;;413.73;199.50;;;;;;;-5.66;82.26;103113.38;4170222;28;20302;-57
2022/12/18 09:15:42;;;;;;;413.33;200.43;;;;;;;-5.67;82.38;103117.78;4169901;28;20753;-57
2022/12/18 09:17:45;;;;;;;419.70;210.80;;;;;;;-5.66;82.44;103113.38;4165997;28;21070;-54
2022/12/18 09:19:47;;;;;;;414.03;196.37;;;;;;;-5.66;82.60;103118.63;4162556;28;20732;-57